Terminal Aerodrome Forecast
Issued by NWS Wilmington, OH

Current Version | Previous Version | Graphics & Text | Print | Product List | Glossary On
Versions: 1 2 3 4 5 6 7 8 9 10 11 12 13 14 15 16 17 18 19 20
813
FTUS41 KILN 080538
TAFILN
TAF
KILN 080538Z 0806/0906 20010KT P6SM BKN070 OVC120
     FM081100 25006KT P6SM VCSH BKN040 OVC100
     FM081900 27010KT 5SM -SHRA BR OVC025
     FM090200 27010KT P6SM -SN BKN015 OVC025=

USA.gov is the U.S. government's official web portal to all federal, state and local government web resources and services.